Time;durP1;ratioP1;P1;durP2;ratioP2;P2;SDS_P1;SDS_P2;PMS_P1;PMS_P2;Temp;Humidity;BMP_temperature;BMP_pressure;BME280_temperature;BME280_humidity;BME280_pressure;Samples;Min_cycle;Max_cycle;Signal;HPM_P1;HPM_P2
2022/03/01 00:00:07;;;;;;;14.03;10.17;;;-1.10;48.20;;;-2.72;60.94;99432.47;5013883;28;20988;-79
2022/03/01 00:02:34;;;;;;;14.10;9.40;;;-1.10;48.20;;;-2.73;60.78;99420.19;5013858;28;20451;-78
2022/03/01 00:05:01;;;;;;;13.30;8.93;;;-1.10;48.20;;;-2.73;60.78;99428.13;5013943;28;20530;-81
2022/03/01 00:07:29;;;;;;;12.30;9.30;;;-1.10;48.20;;;-2.81;61.39;99423.31;5012191;28;21049;-80
2022/03/01 00:09:56;;;;;;;13.03;8.73;;;-1.10;48.20;;;-2.76;60.73;99417.72;5012312;28;20850;-80
2022/03/01 00:12:23;;;;;;;10.87;8.77;;;-1.10;48.10;;;-2.75;61.06;99416.78;5013659;28;20475;-80
2022/03/01 00:14:50;;;;;;;14.17;9.07;;;-1.10;48.20;;;-2.85;61.50;99417.34;5013542;28;20914;-80
2022/03/01 00:17:17;;;;;;;14.90;9.23;;;-1.20;48.20;;;-2.82;60.88;99416.31;5014359;28;20447;-80
2022/03/01 00:19:44;;;;;;;16.07;10.10;;;-1.20;48.20;;;-2.90;61.29;99411.50;5013467;28;20977;-80
2022/03/01 00:22:11;;;;;;;14.27;10.27;;;-1.20;48.20;;;-2.89;60.95;99402.63;5012572;28;20558;-80
2022/03/01 00:24:40;;;;;;;13.50;9.40;;;-1.20;48.20;;;-2.82;61.09;99415.44;5016352;28;20431;-79
2022/03/01 00:27:07;;;;;;;17.73;8.70;;;-1.20;48.40;;;-2.92;61.28;99409.88;5013092;28;20451;-80
2022/03/01 00:29:34;;;;;;;11.70;8.93;;;-1.20;48.10;;;-2.95;61.08;99410.09;5012195;28;20497;-81
2022/03/01 00:32:01;;;;;;;12.90;9.17;;;-1.20;48.50;;;-2.92;61.16;99413.41;5013455;28;20435;-81
2022/03/01 00:34:28;;;;;;;14.80;9.67;;;-1.20;48.20;;;-2.91;61.30;99406.28;5012482;28;20475;-79
2022/03/01 00:36:55;;;;;;;14.90;9.37;;;-1.20;48.30;;;-3.01;61.71;99408.66;5011811;28;20475;-79
2022/03/01 00:39:22;;;;;;;14.00;8.80;;;-1.30;48.30;;;-3.09;61.47;99403.00;5013709;28;20471;-78
2022/03/01 00:41:50;;;;;;;14.13;10.30;;;-1.30;48.20;;;-3.07;61.71;99406.41;5013247;28;20495;-78
2022/03/01 00:44:17;;;;;;;11.17;8.60;;;-1.30;48.50;;;-3.14;61.74;99398.81;5013187;28;20451;-77
2022/03/01 00:46:45;;;;;;;13.67;10.00;;;-1.40;48.40;;;-3.22;62.20;99389.66;5015446;28;20494;-78
2022/03/01 00:49:12;;;;;;;11.43;8.70;;;-1.40;48.60;;;-3.24;61.89;99397.72;5015885;28;20443;-77
2022/03/01 00:51:39;;;;;;;15.43;9.07;;;-1.50;48.70;;;-3.20;62.28;99388.63;5016362;28;20443;-78
2022/03/01 00:54:06;;;;;;;12.37;9.33;;;-1.50;48.70;;;-3.25;62.12;99393.38;5015905;28;20934;-78
2022/03/01 00:56:34;;;;;;;14.20;10.50;;;-1.50;48.70;;;-3.24;61.96;99397.72;5015212;28;20494;-77
2022/03/01 00:59:02;;;;;;;12.10;8.63;;;-1.60;48.70;;;-3.21;62.32;99394.00;5017095;28;20424;-77
2022/03/01 01:01:29;;;;;;;10.40;7.63;;;-1.60;48.60;;;-3.26;62.27;99391.66;5015333;28;20459;-77
2022/03/01 01:03:56;;;;;;;11.63;8.40;;;-1.50;48.80;;;-3.28;61.80;99382.97;5015071;28;20523;-78
2022/03/01 01:06:24;;;;;;;13.10;8.60;;;-1.60;48.90;;;-3.53;61.90;99339.53;5015983;28;20839;-77
2022/03/01 01:08:51;;;;;;;12.40;8.03;;;-1.60;48.70;;;-3.26;62.19;99389.03;5016304;28;20530;-78
2022/03/01 01:11:18;;;;;;;10.90;7.90;;;-1.60;48.70;;;-3.36;62.30;99380.78;5016822;28;20546;-77
2022/03/01 01:13:46;;;;;;;13.03;8.00;;;-1.60;48.80;;;-3.38;62.03;99384.47;5015442;28;20530;-78
2022/03/01 01:16:14;;;;;;;12.40;8.20;;;-1.70;48.70;;;-3.50;62.96;99389.56;5016353;28;20423;-79
2022/03/01 01:18:43;;;;;;;13.17;8.77;;;-1.80;49.00;;;-3.38;62.11;99384.47;5031272;28;20951;-79
2022/03/01 01:21:10;;;;;;;14.90;9.60;;;-1.70;49.10;;;-3.40;62.21;99384.56;5015140;28;20566;-79
2022/03/01 01:23:37;;;;;;;16.73;8.80;;;-1.70;49.00;;;-3.57;62.43;99383.78;5016291;28;20448;-79
2022/03/01 01:26:05;;;;;;;10.83;8.40;;;-1.80;48.90;;;-3.42;62.10;99376.72;5016538;28;20522;-79
2022/03/01 01:28:32;;;;;;;14.57;9.07;;;-1.70;48.90;;;-3.33;61.74;99385.03;5016032;28;20497;-79
2022/03/01 01:30:58;;;;;;;16.83;9.13;;;-1.70;48.60;;;-3.33;61.79;99385.03;5016113;28;20447;-80
2022/03/01 01:33:27;;;;;;;11.40;6.50;;;-1.70;48.50;;;-3.30;61.04;99374.28;5014975;28;20470;-80
2022/03/01 01:35:54;;;;;;;13.37;7.93;;;-1.60;48.40;;;-3.22;61.49;99376.44;5016316;28;20989;-80
2022/03/01 01:38:21;;;;;;;14.00;8.33;;;-1.50;48.40;;;-3.25;61.29;99376.66;5014785;28;20435;-79
2022/03/01 01:40:48;;;;;;;9.80;8.00;;;-1.50;48.30;;;-3.29;61.21;99376.84;5016218;28;20467;-79
2022/03/01 01:43:15;;;;;;;11.40;8.00;;;-1.50;48.30;;;-3.22;60.85;99379.09;5015782;28;20522;-79
2022/03/01 01:45:42;;;;;;;14.27;8.77;;;-1.50;48.10;;;-3.28;60.95;99381.19;5015029;28;20545;-79
2022/03/01 01:48:09;;;;;;;11.40;8.50;;;-1.50;48.20;;;-3.31;61.10;99377.88;5015990;28;20479;-79
2022/03/01 01:50:38;;;;;;;11.43;7.87;;;-1.60;48.20;;;-3.27;61.17;99368.78;5014175;28;20530;-79
2022/03/01 01:53:05;;;;;;;11.00;7.60;;;-1.50;48.20;;;-3.35;61.29;99363.13;5015779;28;20806;-79
2022/03/01 01:55:32;;;;;;;13.83;8.07;;;-1.60;48.10;;;-3.32;61.13;99370.88;5015371;28;20768;-79
2022/03/01 01:57:59;;;;;;;13.10;7.80;;;-1.60;48.10;;;-3.34;60.82;99357.75;5015824;28;20493;-79
2022/03/01 02:00:28;;;;;;;12.13;7.27;;;-1.60;48.10;;;-3.68;60.80;99306.13;5015474;28;20449;-80
2022/03/01 02:02:56;;;;;;;13.07;8.27;;;-1.60;48.00;;;-3.31;60.79;99362.00;5015838;28;20427;-79
2022/03/01 02:05:23;;;;;;;12.20;8.30;;;-1.60;48.00;;;-3.56;60.85;99324.72;5015710;28;20489;-79
2022/03/01 02:07:51;;;;;;;9.93;7.23;;;-1.60;48.00;;;-3.30;60.79;99366.34;5014197;28;20531;-79
2022/03/01 02:10:19;;;;;;;12.40;8.03;;;-1.60;48.00;;;-3.43;61.51;99369.72;5015043;28;20439;-79
2022/03/01 02:12:47;;;;;;;14.60;7.93;;;-1.70;48.10;;;-3.40;61.43;99365.22;5015424;28;20530;-78
2022/03/01 02:15:15;;;;;;;11.63;7.70;;;-1.70;48.10;;;-3.40;61.17;99368.69;5015473;28;20474;-79
2022/03/01 02:17:43;;;;;;;11.40;9.07;;;-1.70;48.10;;;-3.44;61.58;99365.38;5015407;28;20458;-79
2022/03/01 02:20:16;;;;;;;10.00;7.17;;;-1.70;48.20;;;-3.44;61.17;99360.09;5015302;28;20439;-79
2022/03/01 02:22:43;;;;;;;9.77;7.30;;;-1.70;48.30;;;-3.47;61.38;99362.94;5015709;28;20942;-79
2022/03/01 02:25:10;;;;;;;9.10;7.53;;;-1.80;48.10;;;-3.52;61.63;99349.16;5015069;28;20443;-79
2022/03/01 02:27:38;;;;;;;10.13;6.73;;;-1.80;48.30;;;-3.84;61.61;99312.31;5015204;28;20574;-80
2022/03/01 02:30:09;;;;;;;11.27;7.50;;;-1.80;48.30;;;-3.52;61.70;99357.09;5016161;28;20451;-80
2022/03/01 02:32:36;;;;;;;10.60;7.30;;;-1.80;48.40;;;-3.60;62.04;99361.97;5014636;28;20784;-80
2022/03/01 02:35:05;;;;;;;8.10;6.80;;;-1.80;48.60;;;-3.48;61.82;99355.94;5015165;28;20474;-80
2022/03/01 02:37:33;;;;;;;14.20;7.87;;;-1.80;48.50;;;-3.51;61.70;99352.63;5014853;28;20551;-80
2022/03/01 02:40:01;;;;;;;9.70;7.10;;;-1.80;48.50;;;-3.58;62.15;99360.09;5014676;28;20566;-78
2022/03/01 02:42:30;;;;;;;9.70;7.27;;;-1.90;48.60;;;-3.61;62.18;99349.69;5013368;28;20486;-80
2022/03/01 02:44:58;;;;;;;10.20;7.50;;;-1.90;48.60;;;-3.56;62.00;99353.78;5014416;28;20436;-80
2022/03/01 02:47:25;;;;;;;9.70;7.40;;;-1.90;48.70;;;-3.59;62.18;99350.47;5013266;28;20443;-81
2022/03/01 02:49:52;;;;;;;12.20;8.13;;;-1.90;48.70;;;-3.57;62.10;99338.00;5014507;28;20486;-80
2022/03/01 02:52:19;;;;;;;10.40;8.17;;;-1.90;48.70;;;-3.65;62.33;99342.91;5014168;28;20543;-79
2022/03/01 02:54:48;;;;;;;10.27;7.13;;;-1.90;48.80;;;-3.67;62.29;99345.63;5014502;28;20526;-80
2022/03/01 02:57:15;;;;;;;11.03;7.43;;;-2.00;48.90;;;-3.66;62.60;99343.84;5014493;28;20479;-78
2022/03/01 02:59:42;;;;;;;9.50;7.40;;;-2.00;48.90;;;-3.75;63.02;99348.75;5013859;28;20444;-80
2022/03/01 03:02:12;;;;;;;15.10;8.90;;;-2.00;49.10;;;-3.68;62.72;99348.38;5014443;28;20467;-80
2022/03/01 03:04:39;;;;;;;11.00;7.50;;;-2.00;49.20;;;-3.71;62.96;99346.78;5014636;28;20490;-80
2022/03/01 03:07:06;;;;;;;10.93;8.03;;;-2.00;49.30;;;-3.74;62.63;99345.16;5013498;28;20474;-81
2022/03/01 03:09:33;;;;;;;11.60;8.17;;;-2.00;49.20;;;-3.83;63.00;99345.72;5014200;28;20439;-78
2022/03/01 03:12:01;;;;;;;8.60;6.77;;;-2.10;49.20;;;-3.84;63.24;99339.56;5014114;28;20447;-78
2022/03/01 03:14:29;;;;;;;10.80;7.57;;;-2.10;49.30;;;-3.88;63.34;99347.75;5014424;28;20954;-79
2022/03/01 03:16:57;;;;;;;10.47;7.40;;;-2.10;49.30;;;-3.86;63.22;99348.53;5013922;28;20523;-78
2022/03/01 03:19:24;;;;;;;11.50;7.50;;;-2.20;49.30;;;-3.88;63.61;99339.84;5014656;28;20439;-79
2022/03/01 03:21:52;;;;;;;11.80;7.63;;;-2.20;49.40;;;-3.97;63.50;99345.69;5012942;28;20497;-78
2022/03/01 03:24:19;;;;;;;11.83;8.00;;;-2.20;49.50;;;-4.01;63.59;99348.50;5013476;28;20534;-79
2022/03/01 03:26:47;;;;;;;11.27;7.27;;;-2.30;49.50;;;-3.98;63.66;99347.44;5013626;28;20524;-78
2022/03/01 03:29:16;;;;;;;8.63;6.90;;;-2.30;49.50;;;-4.06;64.20;99339.97;5014490;28;20527;-79
2022/03/01 03:31:44;;;;;;;11.27;7.90;;;-2.30;50.10;;;-4.22;64.92;99347.97;5012357;28;20497;-78
2022/03/01 03:34:12;;;;;;;12.40;7.73;;;-2.40;50.10;;;-4.48;64.64;99307.22;5014336;28;20522;-79
2022/03/01 03:36:42;;;;;;;11.20;7.40;;;-2.50;50.10;;;-4.35;65.04;99355.72;5014676;28;20436;-69
2022/03/01 03:39:13;;;;;;;9.70;7.30;;;-2.60;50.30;;;-4.48;64.92;99309.84;5014317;28;20470;-71
2022/03/01 03:41:40;;;;;;;10.03;7.57;;;-2.60;50.50;;;-4.28;64.92;99346.53;5013666;28;20864;-74
2022/03/01 03:44:07;;;;;;;9.70;7.77;;;-2.60;50.50;;;-4.28;64.81;99341.25;5012634;28;20923;-76
2022/03/01 03:46:36;;;;;;;10.63;7.70;;;-2.60;50.40;;;-4.29;64.87;99343.97;5013639;28;20975;-76
2022/03/01 03:49:04;;;;;;;11.83;6.87;;;-2.60;50.40;;;-4.29;64.83;99342.19;5013833;28;20527;-78
2022/03/01 03:51:31;;;;;;;11.10;7.20;;;-2.50;50.50;;;-4.28;64.81;99337.75;5013674;28;20539;-77
2022/03/01 03:53:58;;;;;;;10.80;8.13;;;-2.60;50.40;;;-4.31;64.93;99346.69;5013601;28;20515;-76
2022/03/01 03:56:26;;;;;;;10.30;7.40;;;-2.60;50.40;;;-4.30;64.68;99336.97;5012399;28;20435;-76
2022/03/01 03:58:55;;;;;;;13.10;8.03;;;-2.50;50.50;;;-4.38;64.58;99337.41;5012157;28;20914;-77
2022/03/01 04:01:23;;;;;;;10.03;6.70;;;-2.60;50.50;;;-4.35;64.90;99337.25;5012412;28;20969;-76
2022/03/01 04:03:53;;;;;;;8.93;6.63;;;-2.60;50.60;;;-4.39;65.31;99340.16;5012265;28;20466;-75
2022/03/01 04:06:20;;;;;;;10.10;7.17;;;-2.60;50.60;;;-4.42;65.45;99351.72;5012974;28;20483;-74
2022/03/01 04:08:47;;;;;;;10.57;6.80;;;-2.70;50.70;;;-4.53;65.68;99333.00;5013684;28;20526;-76
2022/03/01 04:11:14;;;;;;;11.10;7.47;;;-2.70;50.90;;;-4.51;65.74;99339.06;5013656;28;20445;-74
2022/03/01 04:13:41;;;;;;;9.77;6.93;;;-2.70;50.90;;;-4.47;65.61;99346.72;5014035;28;20435;-74
2022/03/01 04:16:08;;;;;;;11.27;7.03;;;-2.70;51.00;;;-4.49;65.40;99345.94;5013592;28;20448;-75
2022/03/01 04:18:35;;;;;;;13.23;8.17;;;-2.70;51.10;;;-4.42;65.87;99349.09;5015316;28;20466;-75
2022/03/01 04:21:04;;;;;;;9.33;7.00;;;-2.70;51.10;;;-4.48;66.00;99338.88;5017288;28;20498;-75
2022/03/01 04:23:32;;;;;;;9.60;7.30;;;-2.70;51.20;;;-4.51;66.39;99347.84;5017376;28;20444;-75
2022/03/01 04:25:59;;;;;;;12.63;8.23;;;-2.70;51.40;;;-4.60;66.55;99349.19;5017451;28;20431;-74
2022/03/01 04:28:26;;;;;;;10.17;6.80;;;-2.80;51.40;;;-4.58;66.42;99349.97;5020744;28;20443;-74
2022/03/01 04:30:54;;;;;;;9.53;7.23;;;-2.80;51.60;;;-4.60;66.51;99351.84;5017866;28;20447;-75
2022/03/01 04:33:21;;;;;;;10.53;7.63;;;-2.80;52.00;;;-4.70;66.78;99334.81;5017320;28;20439;-75
2022/03/01 04:35:48;;;;;;;10.10;7.30;;;-2.90;51.70;;;-4.65;66.82;99353.03;5017195;28;20533;-74
2022/03/01 04:38:16;;;;;;;11.17;7.07;;;-2.90;52.10;;;-4.72;67.22;99357.78;5016164;28;20447;-75
2022/03/01 04:40:43;;;;;;;14.53;7.60;;;-3.00;52.20;;;-4.74;67.29;99357.03;5016621;28;20962;-75
2022/03/01 04:43:10;;;;;;;8.10;6.33;;;-3.00;52.30;;;-4.81;67.55;99358.28;5016974;28;20506;-73
2022/03/01 04:45:37;;;;;;;10.63;6.80;;;-3.10;52.50;;;-4.89;67.51;99350.81;5017285;28;20530;-73
2022/03/01 04:48:06;;;;;;;10.60;7.50;;;-3.10;52.60;;;-5.08;67.44;99329.84;5017078;28;20854;-73
2022/03/01 04:50:33;;;;;;;10.00;7.20;;;-3.10;52.80;;;-4.87;67.76;99362.97;5015849;28;20443;-73
2022/03/01 04:53:00;;;;;;;10.90;6.90;;;-3.10;52.80;;;-4.92;68.01;99361.53;5015006;28;20508;-75
2022/03/01 04:55:30;;;;;;;7.93;6.23;;;-3.20;53.00;;;-5.06;68.53;99349.94;5016840;28;20820;-75
2022/03/01 04:57:57;;;;;;;8.77;6.47;;;-3.20;53.30;;;-5.08;68.61;99367.63;5015182;28;20478;-76
2022/03/01 05:00:24;;;;;;;11.23;7.17;;;-3.30;53.40;;;-5.04;68.44;99360.41;5015241;28;20436;-76
2022/03/01 05:02:51;;;;;;;10.03;7.40;;;-3.30;53.70;;;-5.17;69.12;99357.56;5015114;28;20503;-76
2022/03/01 05:05:18;;;;;;;10.23;7.27;;;-3.30;53.80;;;-5.06;68.77;99360.47;5025011;28;20550;-76
2022/03/01 05:07:48;;;;;;;9.93;7.23;;;-3.40;54.10;;;-5.09;68.64;99355.38;5016337;28;20792;-75
2022/03/01 05:10:18;;;;;;;12.80;7.77;;;-3.30;54.10;;;-5.09;68.69;99357.16;5016948;28;20478;-74
2022/03/01 05:12:49;;;;;;;9.47;6.53;;;-3.40;54.10;;;-5.07;68.55;99355.31;5015036;28;20440;-75
2022/03/01 05:15:17;;;;;;;10.27;7.73;;;-3.30;54.10;;;-5.09;68.67;99357.16;5016750;28;20470;-75
2022/03/01 05:17:45;;;;;;;10.47;6.87;;;-3.30;54.10;;;-5.10;68.66;99358.97;5014682;28;20489;-75
2022/03/01 05:20:13;;;;;;;10.57;7.80;;;-3.30;54.20;;;-5.09;69.31;99357.16;5031742;28;20867;-75
2022/03/01 05:22:42;;;;;;;11.13;7.87;;;-3.30;54.30;;;-5.27;69.42;99347.53;5016302;28;20870;-75
2022/03/01 05:25:12;;;;;;;10.80;7.17;;;-3.40;54.50;;;-5.13;68.92;99353.84;5016115;28;20543;-73
2022/03/01 05:27:40;;;;;;;9.93;8.23;;;-3.40;54.70;;;-5.10;68.81;99352.81;5015831;28;20490;-74
2022/03/01 05:30:12;;;;;;;11.90;8.40;;;-3.40;54.70;;;-5.10;68.69;99352.81;5015419;28;20450;-74
2022/03/01 05:32:42;;;;;;;11.63;8.27;;;-3.30;54.90;;;-5.14;69.12;99350.34;5032000;28;20466;-77
2022/03/01 05:35:13;;;;;;;11.80;7.30;;;-3.30;54.70;;;-5.14;68.88;99353.00;5015632;28;20451;-75
2022/03/01 05:37:41;;;;;;;10.87;7.60;;;-3.30;54.80;;;-5.14;69.02;99363.53;5014102;28;20450;-74
2022/03/01 05:40:09;;;;;;;12.63;8.73;;;-3.30;54.70;;;-5.29;69.49;99359.09;5015568;28;20514;-68
2022/03/01 05:42:37;;;;;;;9.87;8.03;;;-3.40;54.80;;;-5.19;69.54;99356.81;5014390;28;20499;-70
2022/03/01 05:45:05;;;;;;;14.60;8.03;;;-3.40;55.00;;;-5.19;69.09;99359.44;5014378;28;20444;-68
2022/03/01 05:47:34;;;;;;;12.77;7.40;;;-3.30;55.10;;;-5.18;69.29;99362.00;5030450;28;20968;-71
2022/03/01 05:50:03;;;;;;;12.83;8.30;;;-3.40;55.20;;;-5.22;69.97;99363.13;5015448;28;20470;-69
2022/03/01 05:52:30;;;;;;;15.07;8.73;;;-3.40;55.50;;;-5.25;69.74;99355.34;5030451;28;20442;-69
2022/03/01 05:54:57;;;;;;;9.13;7.93;;;-3.40;55.50;;;-5.21;69.90;99364.81;5014895;28;20439;-69
2022/03/01 05:57:27;;;;;;;12.30;8.17;;;-3.40;55.70;;;-5.22;69.91;99365.75;5015111;28;20444;-72
2022/03/01 05:59:54;;;;;;;11.97;7.63;;;-3.40;55.60;;;-5.27;70.05;99367.75;5015930;28;20447;-79
2022/03/01 06:02:21;;;;;;;10.73;8.53;;;-3.40;55.80;;;-5.25;69.74;99365.88;5015388;28;20499;-76
2022/03/01 06:04:50;;;;;;;10.23;7.70;;;-3.40;55.70;;;-5.21;69.68;99366.59;5015397;28;20474;-82
2022/03/01 06:07:17;;;;;;;11.60;8.70;;;-3.40;55.70;;;-5.18;69.37;99371.69;5015200;28;20431;-82
2022/03/01 06:09:44;;;;;;;13.70;8.70;;;-3.40;55.60;;;-5.25;69.33;99371.16;5015022;28;20451;-83
2022/03/01 06:12:11;;;;;;;11.03;8.50;;;-3.40;55.70;;;-5.26;69.21;99366.81;5031268;28;20479;-83
2022/03/01 06:14:38;;;;;;;16.03;9.00;;;-3.40;55.70;;;-5.23;69.73;99379.84;5032625;28;20454;-82
2022/03/01 06:17:06;;;;;;;16.27;9.00;;;-3.40;55.70;;;-5.21;69.12;99377.13;5031773;28;20444;-83
2022/03/01 06:19:33;;;;;;;10.17;7.90;;;-3.40;55.60;;;-5.16;69.00;99381.22;5030516;28;20739;-83
2022/03/01 06:22:02;;;;;;;15.13;10.90;;;-3.40;55.60;;;-5.12;68.65;99372.22;5015867;28;20513;-82
2022/03/01 06:24:29;;;;;;;12.20;7.87;;;-3.30;55.60;;;-5.04;68.41;99386.78;5030747;28;20451;-83
2022/03/01 06:26:56;;;;;;;12.70;7.90;;;-3.30;55.30;;;-4.96;69.25;99373.19;5032392;28;20819;-84
2022/03/01 06:29:23;;;;;;;11.90;7.80;;;-3.20;55.70;;;-5.03;68.70;99380.56;5016231;28;20439;-84
2022/03/01 06:31:50;;;;;;;15.03;8.40;;;-3.20;55.40;;;-4.96;68.69;99384.56;5014243;28;20443;-86
2022/03/01 06:34:17;;;;;;;14.83;9.47;;;-3.20;55.20;;;-4.85;68.19;99379.56;5033103;28;20483;-85
2022/03/01 06:36:44;;;;;;;20.70;10.53;;;-3.10;55.20;;;-4.88;68.00;99384.16;5015916;28;20428;-86
2022/03/01 06:39:13;;;;;;;15.90;7.80;;;-3.10;55.00;;;-4.86;68.13;99377.88;5016044;28;20431;-85
2022/03/01 06:41:40;;;;;;;19.23;9.70;;;-3.10;55.10;;;-4.78;67.93;99384.50;5014745;28;20943;-86
2022/03/01 06:44:07;;;;;;;18.60;8.97;;;-3.00;55.00;;;-5.03;67.60;99343.66;5014943;28;20862;-86
2022/03/01 06:46:34;;;;;;;9.77;8.13;;;-3.00;54.80;;;-4.74;67.64;99370.22;5016449;28;20444;-86
2022/03/01 06:49:01;;;;;;;9.83;7.60;;;-2.90;54.90;;;-4.60;66.92;99385.28;5016234;28;20451;-86
2022/03/01 06:51:29;;;;;;;21.63;9.37;;;-2.90;54.50;;;-4.59;66.90;99389.59;5016375;28;20926;-88
2022/03/01 06:53:56;;;;;;;13.13;7.73;;;-2.80;54.50;;;-4.48;66.43;99386.38;5017246;28;20501;-87
2022/03/01 06:56:27;;;;;;;17.50;8.43;;;-2.80;54.20;;;-4.48;66.05;99397.78;5015630;28;20443;-88
2022/03/01 06:58:56;;;;;;;11.13;7.83;;;-2.70;54.20;;;-4.47;66.17;99398.66;5015555;28;20462;-86
2022/03/01 07:01:23;;;;;;;12.77;8.53;;;-2.70;53.90;;;-4.44;65.88;99394.03;5030120;28;20542;-85
2022/03/01 07:03:53;;;;;;;11.10;8.00;;;-2.60;53.70;;;-4.22;65.55;99403.41;5036032;28;20524;-86
2022/03/01 07:06:20;;;;;;;12.43;8.60;;;-2.50;53.70;;;-4.23;65.38;99400.81;5035199;28;20450;-86
2022/03/01 07:08:47;;;;;;;11.73;7.13;;;-2.50;53.50;;;-4.28;65.45;99391.38;5035497;28;20542;-85
2022/03/01 07:11:14;;;;;;;13.37;7.90;;;-2.40;53.30;;;-4.12;65.01;99409.00;5034512;28;20427;-87
2022/03/01 07:13:43;;;;;;;10.77;7.10;;;-2.40;53.10;;;-3.95;64.79;99405.38;5034971;28;20435;-87
2022/03/01 07:16:10;;;;;;;12.33;7.80;;;-2.30;53.10;;;-3.88;64.25;99395.28;5038534;28;20438;-86
2022/03/01 07:18:37;;;;;;;10.47;7.90;;;-2.20;52.80;;;-3.89;63.88;99399.75;5035261;28;20541;-87
2022/03/01 07:21:04;;;;;;;11.67;8.13;;;-2.10;52.60;;;-3.90;64.31;99398.03;5036843;28;20945;-84
2022/03/01 07:23:32;;;;;;;9.03;7.93;;;-2.10;52.60;;;-3.75;64.11;99390.16;5032436;28;20466;-90
2022/03/01 07:25:59;;;;;;;11.07;7.87;;;-2.00;53.00;;;-3.84;63.91;99376.53;5037260;28;20803;-86
2022/03/01 07:28:27;;;;;;;12.03;8.67;;;-2.00;52.70;;;-3.71;63.15;99374.06;5021366;28;20452;-77
2022/03/01 07:30:55;;;;;;;12.10;8.60;;;-1.90;52.20;;;-3.63;62.95;99386.81;5036125;28;20837;-86
2022/03/01 07:33:22;;;;;;;11.10;8.50;;;-1.80;52.10;;;-3.58;63.26;99386.50;5036678;28;20438;-78
2022/03/01 07:35:50;;;;;;;11.57;8.43;;;-1.80;52.10;;;-3.52;63.37;99385.28;5034977;28;20949;-85
2022/03/01 07:38:17;;;;;;;10.43;7.60;;;-1.80;52.20;;;-3.44;63.37;99390.97;5035959;28;20514;-88
2022/03/01 07:40:45;;;;;;;13.83;7.80;;;-1.70;52.30;;;-3.31;62.71;99384.00;5036274;28;20438;-87
2022/03/01 07:43:12;;;;;;;12.30;8.97;;;-1.60;52.10;;;-4.05;62.59;99262.47;5036348;28;20466;-87
2022/03/01 07:45:39;;;;;;;15.33;8.40;;;-1.50;51.90;;;-3.24;62.60;99373.91;5036062;28;20460;-88
2022/03/01 07:48:11;;;;;;;10.63;7.60;;;-1.50;51.90;;;-3.10;61.95;99369.56;5035671;28;20441;-87
2022/03/01 07:50:38;;;;;;;12.83;8.80;;;-1.40;51.70;;;-3.00;61.51;99378.63;5037048;28;20462;-87
2022/03/01 07:53:05;;;;;;;11.20;8.23;;;-1.30;51.40;;;-2.86;61.01;99391.84;5053226;28;20442;-87
2022/03/01 07:55:34;;;;;;;14.10;9.10;;;-1.20;51.10;;;-2.85;60.78;99387.41;5044259;28;20442;-88
2022/03/01 07:58:02;;;;;;;15.90;9.63;;;-1.10;50.70;;;-2.68;59.86;99396.06;5046787;28;20469;-89
2022/03/01 08:00:29;;;;;;;13.00;9.27;;;-1.00;50.70;;;-2.64;60.56;99382.56;5045525;28;20449;-88
2022/03/01 08:02:57;;;;;;;14.70;9.33;;;-0.90;50.80;;;-2.66;59.78;99362.44;5044071;28;20523;-89
2022/03/01 08:05:26;;;;;;;15.03;8.90;;;-0.80;50.30;;;-2.60;59.62;99389.34;5044557;28;20808;-91
2022/03/01 08:07:58;;;;;;;11.43;8.60;;;-0.80;49.80;;;-2.78;59.46;99337.59;5050441;28;20457;-90
2022/03/01 08:10:27;;;;;;;14.30;9.07;;;-0.80;50.10;;;-2.49;59.02;99377.25;5051041;28;20522;-90
2022/03/01 08:12:54;;;;;;;12.47;8.73;;;-0.80;49.50;;;-2.33;58.76;99377.94;5047682;28;20442;-91
2022/03/01 08:15:25;;;;;;;11.73;8.57;;;-0.70;49.50;;;-2.27;58.46;99379.34;5046683;28;20514;-89
2022/03/01 08:17:55;;;;;;;8.40;6.97;;;-0.60;49.30;;;-2.06;58.74;99371.75;5046301;28;20561;-89
2022/03/01 08:20:23;;;;;;;10.90;7.70;;;-0.50;49.60;;;-2.01;57.31;99369.69;5046804;28;20431;-89
2022/03/01 08:22:51;;;;;;;11.67;7.93;;;-0.30;48.90;;;-2.01;57.49;99372.34;5046850;28;20462;-78
2022/03/01 08:25:19;;;;;;;11.63;8.40;;;-0.30;48.50;;;-1.92;57.44;99373.53;5036841;28;20458;-83
2022/03/01 08:27:47;;;;;;;12.43;7.90;;;-0.20;48.60;;;-1.83;56.69;99361.44;5037295;28;20798;-83
2022/03/01 08:30:14;;;;;;;11.70;7.87;;;-0.20;48.30;;;-1.68;56.19;99375.44;5037346;28;20450;-73
2022/03/01 08:32:41;;;;;;;7.93;6.60;;;-0.10;48.00;;;-1.72;55.77;99369.53;5035251;28;20532;-73
2022/03/01 08:35:09;;;;;;;11.97;8.23;;;-0.10;47.90;;;-1.61;56.40;99374.09;5035526;28;20446;-69
2022/03/01 08:37:36;;;;;;;9.80;7.43;;;0.00;47.90;;;-1.52;56.20;99364.66;5035455;28;20834;-70
2022/03/01 08:40:07;;;;;;;12.00;8.00;;;0.10;47.80;;;-1.40;54.79;99351.53;5036065;28;20488;-71
2022/03/01 08:42:34;;;;;;;9.57;7.30;;;0.20;47.20;;;-1.37;54.62;99368.06;5036335;28;20597;-70
2022/03/01 08:45:01;;;;;;;12.10;6.93;;;0.30;46.80;;;-1.35;54.96;99360.88;5036779;28;20902;-71
2022/03/01 08:47:28;;;;;;;11.90;7.80;;;0.30;47.10;;;-1.13;54.97;99369.97;5035225;28;20435;-70
2022/03/01 08:49:55;;;;;;;10.70;8.17;;;0.40;47.30;;;-1.24;54.48;99332.72;5035844;28;20442;-71
2022/03/01 08:52:22;;;;;;;11.63;7.63;;;0.50;46.80;;;-1.00;54.06;99362.00;5036589;28;20470;-71
2022/03/01 08:54:49;;;;;;;8.43;7.07;;;0.60;46.60;;;-0.81;53.97;99363.38;5035134;28;20442;-71
2022/03/01 08:57:18;;;;;;;8.07;7.23;;;0.70;46.60;;;-0.61;52.86;99349.50;5034908;28;20450;-71
2022/03/01 08:59:45;;;;;;;12.33;8.23;;;0.90;46.30;;;-0.44;52.48;99344.75;5036725;28;20478;-71
2022/03/01 09:02:17;;;;;;;9.70;7.50;;;1.00;46.00;;;-0.42;52.16;99345.50;5038133;28;20443;-71
2022/03/01 09:04:45;;;;;;;10.90;6.27;;;1.10;45.50;;;-0.31;51.26;99348.22;5037662;28;20541;-72
2022/03/01 09:07:12;;;;;;;7.97;6.87;;;1.30;45.20;;;-0.27;51.02;99322.28;5036297;28;20496;-71
2022/03/01 09:09:39;;;;;;;13.93;7.63;;;1.40;44.50;;;-0.16;50.43;99327.63;5034438;28;20520;-71
2022/03/01 09:12:07;;;;;;;10.80;6.83;;;1.40;44.20;;;0.07;49.56;99337.47;5034521;28;20482;-72
2022/03/01 09:14:35;;;;;;;6.80;6.10;;;1.60;43.80;;;0.24;49.22;99331.75;5036424;28;20477;-71
2022/03/01 09:17:03;;;;;;;9.70;7.07;;;1.70;43.40;;;0.40;48.55;99322.63;5034401;28;20473;-71
2022/03/01 09:19:30;;;;;;;8.13;7.07;;;1.90;43.50;;;0.36;47.88;99318.47;5035317;28;20550;-70
2022/03/01 09:21:57;;;;;;;9.20;6.30;;;1.90;42.70;;;0.27;48.12;99315.56;5036091;28;20438;-71
2022/03/01 09:24:24;;;;;;;12.60;6.30;;;2.00;42.60;;;0.55;47.13;99326.75;5035619;28;20464;-71
2022/03/01 09:26:51;;;;;;;7.87;6.60;;;2.10;42.50;;;0.60;47.30;99328.19;5035739;28;20968;-71
2022/03/01 09:29:20;;;;;;;8.13;6.00;;;2.10;42.30;;;0.66;47.96;99327.69;5035316;28;20446;-70
2022/03/01 09:31:49;;;;;;;8.47;5.93;;;2.20;42.40;;;0.74;46.26;99319.97;5034805;28;20447;-70
2022/03/01 09:34:16;;;;;;;12.50;6.97;;;2.30;41.90;;;0.59;46.89;99321.19;5035734;28;20442;-72
2022/03/01 09:36:43;;;;;;;7.40;5.70;;;2.20;41.60;;;0.63;46.77;99317.31;5036118;28;20533;-71
2022/03/01 09:39:10;;;;;;;7.83;6.17;;;2.20;41.60;;;0.79;46.78;99316.97;5034002;28;20533;-71
2022/03/01 09:41:37;;;;;;;13.13;7.90;;;2.30;41.70;;;0.88;46.41;99315.38;5033906;28;20926;-71
2022/03/01 09:44:06;;;;;;;10.23;6.93;;;2.40;41.70;;;0.92;46.42;99304.38;5035224;28;20962;-71
2022/03/01 09:46:34;;;;;;;10.70;6.50;;;2.40;41.40;;;1.07;46.19;99299.63;5035479;28;20458;-71
2022/03/01 09:49:05;;;;;;;13.53;6.87;;;2.50;41.40;;;1.32;45.23;99299.47;5034545;28;20492;-71
2022/03/01 09:51:33;;;;;;;7.17;5.90;;;2.70;41.30;;;1.35;44.58;99294.75;5034861;28;20449;-71
2022/03/01 09:54:01;;;;;;;8.37;6.40;;;2.80;40.60;;;1.49;43.99;99287.44;5034604;28;20458;-72
2022/03/01 09:56:28;;;;;;;12.03;6.97;;;2.90;40.40;;;1.27;44.28;99291.84;5051082;28;20902;-71
2022/03/01 09:58:57;;;;;;;8.23;6.20;;;2.90;40.20;;;1.33;44.06;99285.19;5035558;28;20439;-70
2022/03/01 10:01:25;;;;;;;7.33;6.50;;;2.90;40.10;;;1.39;44.36;99288.19;5034361;28;20805;-70
2022/03/01 10:03:53;;;;;;;12.70;6.00;;;2.90;40.20;;;1.51;44.59;99280.19;5034764;28;20520;-71
2022/03/01 10:06:23;;;;;;;11.73;6.30;;;3.00;40.50;;;1.77;44.13;99290.50;5034132;28;20446;-71
2022/03/01 10:08:55;;;;;;;9.13;7.23;;;3.10;40.50;;;1.51;43.85;99288.16;5033666;28;20537;-71
2022/03/01 10:11:23;;;;;;;6.93;6.23;;;3.10;39.80;;;1.39;44.36;99271.38;5033860;28;20829;-71
2022/03/01 10:13:58;;;;;;;7.40;6.33;;;3.00;40.00;;;1.66;44.06;99281.56;5033407;28;20435;-70
2022/03/01 10:16:25;;;;;;;7.93;6.37;;;3.20;40.10;;;1.90;43.74;99285.00;5033592;28;20850;-70